Time,TemperatureF,DewpointF,PressureIn,WindDirection,WindDirectionDegrees,WindSpeedMPH,WindSpeedGustMPH,Humidity,HourlyPrecipIn,Conditions,Clouds,dailyrainin,SoftwareType,DateUTC
2013-02-12 00:03:00,33.0,22.5,30.22,West,277,0.0,0.0,65,0.00,CLR,SKC,0.00,WeatherDisplay:10.37,2013-02-12 06:03:00,
2013-02-12 00:08:00,32.9,22.8,30.22,West,277,0.0,0.0,66,0.00,CLR,SKC,0.00,WeatherDisplay:10.37,2013-02-12 06:08:00,
2013-02-12 00:13:00,32.8,22.7,30.21,West,277,0.0,0.0,66,0.00,CLR,SKC,0.00,WeatherDisplay:10.37,2013-02-12 06:13:00,
2013-02-12 00:18:00,32.5,22.4,30.22,West,277,0.0,0.0,66,0.00,CLR,SKC,0.00,WeatherDisplay:10.37,2013-02-12 06:18:00,
2013-02-12 00:23:00,32.3,22.6,30.22,West,277,0.0,0.0,67,0.00,CLR,SKC,0.00,WeatherDisplay:10.37,2013-02-12 06:23:00,
2013-02-12 00:28:00,32.2,22.5,30.22,West,277,0.0,0.0,67,0.00,CLR,SKC,0.00,WeatherDisplay:10.37,2013-02-12 06:28:00,
2013-02-12 00:38:00,31.6,22.3,30.22,West,277,0.0,0.0,68,0.00,CLR,SKC,0.00,WeatherDisplay:10.37,2013-02-12 06:38:00,
2013-02-12 00:43:00,31.6,22.6,30.22,West,277,0.0,2.0,69,0.00,CLR,SKC,0.00,WeatherDisplay:10.37,2013-02-12 06:43:00,
2013-02-12 00:48:00,31.6,22.6,30.22,West,277,0.0,2.0,69,0.00,CLR,SKC,0.00,WeatherDisplay:10.37,2013-02-12 06:48:00,
2013-02-12 00:53:00,31.5,22.5,30.22,West,277,0.0,2.0,69,0.00,CLR,SKC,0.00,WeatherDisplay:10.37,2013-02-12 06:53:00,
2013-02-12 01:03:00,30.8,22.1,30.21,West,277,0.0,0.0,70,0.00,CLR,SKC,0.00,WeatherDisplay:10.37,2013-02-12 07:03:00,
2013-02-12 01:08:00,30.4,22.1,30.21,West,277,0.0,0.0,71,0.00,CLR,SKC,0.00,WeatherDisplay:10.37,2013-02-12 07:08:00,
2013-02-12 01:13:00,30.4,22.5,30.21,West,277,0.0,0.0,72,0.00,CLR,SKC,0.00,WeatherDisplay:10.37,2013-02-12 07:13:00,
2013-02-12 01:18:00,30.4,22.5,30.21,West,277,0.0,0.0,72,0.00,CLR,SKC,0.00,WeatherDisplay:10.37,2013-02-12 07:18:00,
2013-02-12 01:28:00,29.9,22.3,30.21,West,277,0.0,0.0,73,0.00,CLR,SKC,0.00,WeatherDisplay:10.37,2013-02-12 07:28:00,
2013-02-12 01:33:00,29.7,22.1,30.21,West,277,0.0,0.0,73,0.00,CLR,SKC,0.00,WeatherDisplay:10.37,2013-02-12 07:33:00,
2013-02-12 01:38:00,29.5,22.3,30.21,West,277,0.0,0.0,74,0.00,CLR,SKC,0.00,WeatherDisplay:10.37,2013-02-12 07:38:00,
2013-02-12 01:43:00,29.5,22.2,30.22,West,277,0.0,0.0,74,0.00,CLR,SKC,0.00,WeatherDisplay:10.37,2013-02-12 07:43:00,
2013-02-12 01:48:00,29.7,22.4,30.21,West,277,0.0,0.0,74,0.00,CLR,SKC,0.00,WeatherDisplay:10.37,2013-02-12 07:48:00,
2013-02-12 01:53:00,29.9,22.3,30.21,West,277,0.0,0.0,73,0.00,CLR,SKC,0.00,WeatherDisplay:10.37,2013-02-12 07:53:00,
2013-02-12 01:58:00,29.7,22.1,30.21,West,277,0.0,0.0,73,0.00,CLR,SKC,0.00,WeatherDisplay:10.37,2013-02-12 07:58:00,
2013-02-12 02:03:00,29.2,22.0,30.21,West,277,0.0,0.0,74,0.00,CLR,SKC,0.00,WeatherDisplay:10.37,2013-02-12 08:03:00,
2013-02-12 02:08:00,28.8,21.9,30.21,West,277,0.0,0.0,75,0.00,CLR,SKC,0.00,WeatherDisplay:10.37,2013-02-12 08:08:00,
2013-02-12 02:13:00,28.6,22.0,30.21,West,277,0.0,0.0,76,0.00,CLR,SKC,0.00,WeatherDisplay:10.37,2013-02-12 08:13:00,
2013-02-12 02:18:00,29.0,22.4,30.21,West,277,0.0,0.0,76,0.00,CLR,SKC,0.00,WeatherDisplay:10.37,2013-02-12 08:18:00,
2013-02-12 02:23:00,29.3,22.4,30.21,West,277,0.0,0.0,75,0.00,CLR,SKC,0.00,WeatherDisplay:10.37,2013-02-12 08:23:00,
2013-02-12 02:28:00,29.4,22.1,30.21,West,277,0.0,0.0,74,0.00,CLR,SKC,0.00,WeatherDisplay:10.37,2013-02-12 08:28:00,
2013-02-12 02:33:00,29.4,22.1,30.20,West,277,0.0,0.0,74,0.00,CLR,SKC,0.00,WeatherDisplay:10.37,2013-02-12 08:33:00,
2013-02-12 02:38:00,29.2,22.0,30.20,West,277,0.0,0.0,74,0.00,CLR,SKC,0.00,WeatherDisplay:10.37,2013-02-12 08:38:00,
2013-02-12 02:43:00,29.1,22.2,30.19,West,277,0.0,0.0,75,0.00,CLR,SKC,0.00,WeatherDisplay:10.37,2013-02-12 08:43:00,
2013-02-12 02:48:00,29.2,22.3,30.19,West,277,0.0,2.0,75,0.00,CLR,SKC,0.00,WeatherDisplay:10.37,2013-02-12 08:48:00,
2013-02-12 02:53:00,29.1,22.2,30.19,West,280,0.0,0.0,75,0.00,CLR,SKC,0.00,WeatherDisplay:10.37,2013-02-12 08:53:00,
2013-02-12 02:58:00,29.1,22.2,30.19,WNW,286,0.0,0.0,75,0.00,CLR,SKC,0.00,WeatherDisplay:10.37,2013-02-12 08:58:00,
2013-02-12 03:03:00,29.2,22.3,30.19,WNW,292,0.0,2.0,75,0.00,CLR,SKC,0.00,WeatherDisplay:10.37,2013-02-12 09:03:00,
2013-02-12 03:13:00,28.9,21.9,30.19,WNW,295,0.0,0.0,75,0.00,CLR,SKC,0.00,WeatherDisplay:10.37,2013-02-12 09:13:00,
2013-02-12 03:18:00,28.6,22.0,30.19,WNW,295,0.0,0.0,76,0.00,CLR,SKC,0.00,WeatherDisplay:10.37,2013-02-12 09:18:00,
2013-02-12 03:23:00,28.2,21.6,30.18,WNW,295,0.0,0.0,76,0.00,CLR,SKC,0.00,WeatherDisplay:10.37,2013-02-12 09:23:00,
2013-02-12 03:28:00,28.2,21.9,30.18,WNW,295,0.0,0.0,77,0.00,CLR,SKC,0.00,WeatherDisplay:10.37,2013-02-12 09:28:00,
2013-02-12 03:33:00,28.2,21.9,30.19,WNW,295,0.0,0.0,77,0.00,CLR,SKC,0.00,WeatherDisplay:10.37,2013-02-12 09:33:00,
2013-02-12 03:38:00,28.2,21.9,30.18,WNW,295,0.0,0.0,77,0.00,CLR,SKC,0.00,WeatherDisplay:10.37,2013-02-12 09:38:00,
2013-02-12 03:48:00,28.3,22.0,30.19,WNW,286,0.0,2.0,77,0.00,CLR,SKC,0.00,WeatherDisplay:10.37,2013-02-12 09:48:00,
2013-02-12 03:53:00,28.0,21.8,30.19,West,264,0.0,0.0,77,0.00,CLR,SKC,0.00,WeatherDisplay:10.37,2013-02-12 09:53:00,
2013-02-12 03:58:00,27.6,21.4,30.19,West,264,0.0,0.0,77,0.00,CLR,SKC,0.00,WeatherDisplay:10.37,2013-02-12 09:58:00,
2013-02-12 04:03:00,27.1,21.1,30.19,West,264,0.0,0.0,78,0.00,CLR,SKC,0.00,WeatherDisplay:10.37,2013-02-12 10:03:00,
2013-02-12 04:08:00,26.7,21.0,30.18,West,264,0.0,0.0,79,0.00,CLR,SKC,0.00,WeatherDisplay:10.37,2013-02-12 10:08:00,
2013-02-12 04:13:00,26.2,20.9,30.18,West,264,0.0,0.0,80,0.00,CLR,SKC,0.00,WeatherDisplay:10.37,2013-02-12 10:13:00,
2013-02-12 04:18:00,25.8,20.8,30.18,West,264,0.0,0.0,81,0.00,CLR,SKC,0.00,WeatherDisplay:10.37,2013-02-12 10:18:00,
2013-02-12 04:23:00,25.4,20.7,30.18,West,264,0.0,0.0,82,0.00,CLR,SKC,0.00,WeatherDisplay:10.37,2013-02-12 10:23:00,
2013-02-12 04:28:00,25.3,20.9,30.18,West,264,0.0,0.0,83,0.00,CLR,SKC,0.00,WeatherDisplay:10.37,2013-02-12 10:28:00,
2013-02-12 04:38:00,25.6,21.2,30.19,West,264,0.0,0.0,83,0.00,CLR,SKC,0.00,WeatherDisplay:10.37,2013-02-12 10:38:00,
2013-02-12 04:43:00,25.3,20.9,30.19,West,264,0.0,0.0,83,0.00,CLR,SKC,0.00,WeatherDisplay:10.37,2013-02-12 10:43:00,
2013-02-12 04:53:00,25.0,20.8,30.18,West,264,0.0,0.0,84,0.00,CLR,SKC,0.00,WeatherDisplay:10.37,2013-02-12 10:53:00,
2013-02-12 04:58:00,25.1,21.2,30.18,West,264,0.0,0.0,85,0.00,CLR,SKC,0.00,WeatherDisplay:10.37,2013-02-12 10:58:00,
2013-02-12 05:03:00,25.0,21.1,30.18,West,264,0.0,0.0,85,0.00,CLR,SKC,0.00,WeatherDisplay:10.37,2013-02-12 11:03:00,
2013-02-12 05:13:00,25.5,21.9,30.18,West,264,0.0,0.0,86,0.00,CLR,SKC,0.00,WeatherDisplay:10.37,2013-02-12 11:13:00,
2013-02-12 05:18:00,26.3,22.4,30.18,West,264,0.0,0.0,85,0.00,CLR,SKC,0.00,WeatherDisplay:10.37,2013-02-12 11:18:00,
2013-02-12 05:28:00,27.1,22.6,30.18,West,264,0.0,0.0,83,0.00,CLR,SKC,0.00,WeatherDisplay:10.37,2013-02-12 11:28:00,
2013-02-12 05:33:00,27.5,22.7,30.19,West,264,0.0,0.0,82,0.00,CLR,SKC,0.00,WeatherDisplay:10.37,2013-02-12 11:33:00,
2013-02-12 05:38:00,27.6,22.8,30.19,West,264,0.0,0.0,82,0.00,CLR,SKC,0.00,WeatherDisplay:10.37,2013-02-12 11:38:00,
2013-02-12 05:48:00,27.4,22.6,30.19,West,264,0.0,0.0,82,0.00,CLR,SKC,0.00,WeatherDisplay:10.37,2013-02-12 11:48:00,
2013-02-12 05:53:00,27.0,22.2,30.19,West,264,0.0,0.0,82,0.00,CLR,SKC,0.00,WeatherDisplay:10.37,2013-02-12 11:53:00,
2013-02-12 05:58:00,26.9,22.4,30.19,West,264,0.0,0.0,83,0.00,CLR,SKC,0.00,WeatherDisplay:10.37,2013-02-12 11:58:00,
2013-02-12 06:03:00,27.0,22.8,30.19,West,264,0.0,0.0,84,0.00,CLR,SKC,0.00,WeatherDisplay:10.37,2013-02-12 12:03:00,
2013-02-12 06:08:00,27.0,22.5,30.18,West,264,0.0,0.0,83,0.00,CLR,SKC,0.00,WeatherDisplay:10.37,2013-02-12 12:08:00,
2013-02-12 06:13:00,26.9,22.4,30.18,West,264,0.0,0.0,83,0.00,CLR,SKC,0.00,WeatherDisplay:10.37,2013-02-12 12:13:00,
2013-02-12 06:18:00,26.8,22.3,30.18,West,264,0.0,0.0,83,0.00,CLR,SKC,0.00,WeatherDisplay:10.37,2013-02-12 12:18:00,
2013-02-12 06:23:00,26.7,22.3,30.17,West,263,0.0,2.0,83,0.00,CLR,SKC,0.00,WeatherDisplay:10.37,2013-02-12 12:23:00,
2013-02-12 06:28:00,26.8,22.7,30.18,SW,229,0.0,2.0,84,0.00,CLR,SKC,0.00,WeatherDisplay:10.37,2013-02-12 12:28:00,
2013-02-12 06:33:00,26.9,22.4,30.17,SE,139,1.0,2.0,83,0.00,CLR,SKC,0.00,WeatherDisplay:10.37,2013-02-12 12:33:00,
2013-02-12 06:38:00,26.8,22.6,30.17,SE,141,0.0,2.0,84,0.00,CLR,SKC,0.00,WeatherDisplay:10.37,2013-02-12 12:38:00,
2013-02-12 06:43:00,26.9,23.0,30.17,SE,135,0.0,2.0,85,0.00,CLR,SKC,0.00,WeatherDisplay:10.37,2013-02-12 12:43:00,
2013-02-12 06:48:00,26.9,23.0,30.17,SE,124,0.0,0.0,85,0.00,CLR,SKC,0.00,WeatherDisplay:10.37,2013-02-12 12:48:00,
2013-02-12 06:53:00,26.9,23.0,30.17,SE,124,0.0,2.0,85,0.00,CLR,SKC,0.00,WeatherDisplay:10.37,2013-02-12 12:53:00,
2013-02-12 06:58:00,27.3,23.7,30.17,SE,124,0.0,0.0,86,0.00,CLR,SKC,0.00,WeatherDisplay:10.37,2013-02-12 12:58:00,
2013-02-12 07:03:00,27.6,23.7,30.17,SE,126,0.0,2.0,85,0.00,CLR,SKC,0.00,WeatherDisplay:10.37,2013-02-12 13:03:00,
2013-02-12 07:08:00,27.7,23.5,30.17,SE,140,1.0,2.0,84,0.00,CLR,SKC,0.00,WeatherDisplay:10.37,2013-02-12 13:08:00,
2013-02-12 07:18:00,27.7,23.5,30.17,SE,139,0.0,3.0,84,0.00,CLR,SKC,0.00,WeatherDisplay:10.37,2013-02-12 13:18:00,
2013-02-12 07:28:00,27.6,23.4,30.17,SE,136,0.0,0.0,84,0.00,CLR,SKC,0.00,WeatherDisplay:10.37,2013-02-12 13:28:00,
2013-02-12 07:33:00,27.7,23.5,30.17,SE,136,0.0,0.0,84,0.00,CLR,SKC,0.00,WeatherDisplay:10.37,2013-02-12 13:33:00,
2013-02-12 07:38:00,27.7,23.5,30.17,SE,136,0.0,0.0,84,0.00,CLR,SKC,0.00,WeatherDisplay:10.37,2013-02-12 13:38:00,
2013-02-12 07:43:00,27.7,23.8,30.17,SE,136,0.0,2.0,85,0.00,CLR,SKC,0.00,WeatherDisplay:10.37,2013-02-12 13:43:00,
2013-02-12 07:48:00,28.0,24.1,30.17,SE,138,1.0,2.0,85,0.00,CLR,SKC,0.00,WeatherDisplay:10.37,2013-02-12 13:48:00,
2013-02-12 07:53:00,28.2,24.0,30.18,SE,141,2.0,3.0,84,0.00,CLR,SKC,0.00,WeatherDisplay:10.37,2013-02-12 13:53:00,
2013-02-12 07:58:00,28.4,24.2,30.19,SE,144,2.0,3.0,84,0.00,CLR,SKC,0.00,WeatherDisplay:10.37,2013-02-12 13:58:00,
2013-02-12 08:03:00,28.7,24.5,30.19,SE,144,0.0,3.0,84,0.00,CLR,SKC,0.00,WeatherDisplay:10.37,2013-02-12 14:03:00,
2013-02-12 08:08:00,28.9,24.7,30.20,SE,142,0.0,2.0,84,0.00,CLR,SKC,0.00,WeatherDisplay:10.37,2013-02-12 14:08:00,
2013-02-12 08:18:00,29.3,25.1,30.19,SE,144,0.0,5.0,84,0.00,CLR,SKC,0.00,WeatherDisplay:10.37,2013-02-12 14:18:00,
2013-02-12 08:23:00,29.5,25.0,30.19,SE,137,1.0,3.0,83,0.00,CLR,SKC,0.00,WeatherDisplay:10.37,2013-02-12 14:23:00,
2013-02-12 08:28:00,29.6,25.1,30.18,SE,129,0.0,2.0,83,0.00,CLR,SKC,0.00,WeatherDisplay:10.37,2013-02-12 14:28:00,
2013-02-12 08:33:00,29.7,25.2,30.19,SSE,152,2.0,5.0,83,0.00,CLR,SKC,0.00,WeatherDisplay:10.37,2013-02-12 14:33:00,
2013-02-12 08:38:00,29.9,25.4,30.19,SE,144,0.0,3.0,83,0.00,CLR,SKC,0.00,WeatherDisplay:10.37,2013-02-12 14:38:00,
2013-02-12 08:43:00,30.0,25.2,30.18,SE,127,0.0,2.0,82,0.00,CLR,SKC,0.00,WeatherDisplay:10.37,2013-02-12 14:43:00,
2013-02-12 08:48:00,30.1,25.3,30.19,ESE,121,0.0,0.0,82,0.00,CLR,SKC,0.00,WeatherDisplay:10.37,2013-02-12 14:48:00,
2013-02-12 08:53:00,30.3,25.5,30.18,ESE,123,0.0,3.0,82,0.00,CLR,SKC,0.00,WeatherDisplay:10.37,2013-02-12 14:53:00,
2013-02-12 08:58:00,30.5,25.7,30.18,SE,129,0.0,1.0,82,0.00,CLR,SKC,0.00,WeatherDisplay:10.37,2013-02-12 14:58:00,
2013-02-12 09:03:00,30.7,25.9,30.18,SE,132,0.0,0.0,82,0.00,CLR,SKC,0.00,WeatherDisplay:10.37,2013-02-12 15:03:00,
2013-02-12 09:08:00,30.8,25.7,30.18,SE,132,0.0,2.0,81,0.00,CLR,SKC,0.00,WeatherDisplay:10.37,2013-02-12 15:08:00,
2013-02-12 09:13:00,30.9,25.8,30.18,SE,131,0.0,0.0,81,0.00,CLR,SKC,0.00,WeatherDisplay:10.37,2013-02-12 15:13:00,
2013-02-12 09:18:00,31.2,26.1,30.17,SE,131,0.0,0.0,81,0.00,CLR,SKC,0.00,WeatherDisplay:10.37,2013-02-12 15:18:00,
2013-02-12 09:23:00,31.6,26.4,30.17,SE,130,0.0,0.0,81,0.00,CLR,SKC,0.00,WeatherDisplay:10.37,2013-02-12 15:23:00,
2013-02-12 09:28:00,31.8,26.3,30.17,SE,129,0.0,0.0,80,0.00,CLR,SKC,0.00,WeatherDisplay:10.37,2013-02-12 15:28:00,
2013-02-12 09:33:00,32.1,26.6,30.17,SE,131,0.0,0.0,80,0.00,CLR,SKC,0.00,WeatherDisplay:10.37,2013-02-12 15:33:00,
2013-02-12 09:38:00,32.4,26.6,30.16,SE,131,0.0,0.0,79,0.00,CLR,SKC,0.00,WeatherDisplay:10.37,2013-02-12 15:38:00,
2013-02-12 09:43:00,32.6,26.8,30.17,SE,139,1.0,5.0,79,0.00,CLR,SKC,0.00,WeatherDisplay:10.37,2013-02-12 15:43:00,
2013-02-12 09:48:00,32.7,26.9,30.17,SE,145,0.0,3.0,79,0.00,CLR,SKC,0.00,WeatherDisplay:10.37,2013-02-12 15:48:00,
2013-02-12 09:58:00,33.1,27.2,30.16,SE,132,0.0,3.0,79,0.00,CLR,SKC,0.00,WeatherDisplay:10.37,2013-02-12 15:58:00,
2013-02-12 10:03:00,33.2,27.4,30.17,SE,138,1.0,3.0,79,0.00,CLR,SKC,0.00,WeatherDisplay:10.37,2013-02-12 16:03:00,
2013-02-12 10:08:00,33.3,27.2,30.16,SE,130,2.0,5.0,78,0.00,CLR,SKC,0.00,WeatherDisplay:10.37,2013-02-12 16:08:00,
2013-02-12 10:13:00,33.5,27.4,30.16,SE,133,5.0,7.0,78,0.00,CLR,SKC,0.00,WeatherDisplay:10.37,2013-02-12 16:13:00,
2013-02-12 10:18:00,33.7,27.6,30.17,SE,146,1.0,5.0,78,0.00,CLR,SKC,0.00,WeatherDisplay:10.37,2013-02-12 16:18:00,
2013-02-12 10:23:00,33.9,27.8,30.17,SSE,155,3.0,5.0,78,0.00,CLR,SKC,0.00,WeatherDisplay:10.37,2013-02-12 16:23:00,
2013-02-12 10:28:00,34.1,28.0,30.17,South,178,3.0,7.0,78,0.00,CLR,SKC,0.00,WeatherDisplay:10.37,2013-02-12 16:28:00,
2013-02-12 10:38:00,34.6,28.1,30.17,South,169,3.0,7.0,77,0.00,CLR,SKC,0.00,WeatherDisplay:10.37,2013-02-12 16:38:00,
2013-02-12 10:43:00,34.9,28.1,30.17,SSE,164,3.0,7.0,76,0.00,CLR,SKC,0.00,WeatherDisplay:10.37,2013-02-12 16:43:00,
2013-02-12 10:48:00,34.8,28.0,30.16,SE,135,5.0,7.0,76,0.00,CLR,SKC,0.00,WeatherDisplay:10.37,2013-02-12 16:48:00,
2013-02-12 10:58:00,35.2,28.4,30.16,SSE,158,1.0,6.0,76,0.00,CLR,SKC,0.00,WeatherDisplay:10.37,2013-02-12 16:58:00,
2013-02-12 11:03:00,35.4,28.5,30.16,South,188,1.0,6.0,76,0.00,CLR,SKC,0.00,WeatherDisplay:10.37,2013-02-12 17:03:00,
2013-02-12 11:08:00,35.4,28.3,30.16,SSE,160,5.0,7.0,75,0.00,CLR,SKC,0.00,WeatherDisplay:10.37,2013-02-12 17:08:00,
2013-02-12 11:13:00,35.6,28.4,30.15,SSE,165,2.0,7.0,75,0.00,CLR,SKC,0.00,WeatherDisplay:10.37,2013-02-12 17:13:00,
2013-02-12 11:18:00,35.8,28.7,30.15,SSE,165,2.0,5.0,75,0.00,CLR,SKC,0.00,WeatherDisplay:10.37,2013-02-12 17:18:00,
2013-02-12 11:23:00,36.1,28.9,30.16,SSE,160,2.0,5.0,75,0.00,CLR,SKC,0.00,WeatherDisplay:10.37,2013-02-12 17:23:00,
2013-02-12 11:28:00,36.1,28.6,30.15,SSE,154,5.0,7.0,74,0.00,CLR,SKC,0.00,WeatherDisplay:10.37,2013-02-12 17:28:00,
2013-02-12 11:33:00,36.4,28.9,30.15,SSE,152,2.0,5.0,74,0.00,CLR,SKC,0.00,WeatherDisplay:10.37,2013-02-12 17:33:00,
2013-02-12 11:38:00,36.7,28.8,30.15,SE,146,3.0,8.0,73,0.00,CLR,SKC,0.00,WeatherDisplay:10.37,2013-02-12 17:38:00,
2013-02-12 11:43:00,37.0,28.8,30.14,SSE,156,3.0,8.0,72,0.00,CLR,SKC,0.00,WeatherDisplay:10.37,2013-02-12 17:43:00,
2013-02-12 11:48:00,37.2,29.0,30.15,SSE,156,1.0,8.0,72,0.00,CLR,SKC,0.00,WeatherDisplay:10.37,2013-02-12 17:48:00,
2013-02-12 11:53:00,37.4,28.9,30.15,SE,144,2.0,7.0,71,0.00,CLR,SKC,0.00,WeatherDisplay:10.37,2013-02-12 17:53:00,
2013-02-12 11:58:00,37.6,28.7,30.14,SE,127,1.0,5.0,70,0.00,CLR,SKC,0.00,WeatherDisplay:10.37,2013-02-12 17:58:00,
2013-02-12 12:03:00,37.8,28.6,30.14,SE,138,5.0,10.0,69,0.00,CLR,SKC,0.00,WeatherDisplay:10.37,2013-02-12 18:03:00,
2013-02-12 12:08:00,38.0,29.1,30.14,SSE,155,1.0,5.0,70,0.00,CLR,SKC,0.00,WeatherDisplay:10.37,2013-02-12 18:08:00,
2013-02-12 12:13:00,38.4,28.8,30.14,SSE,161,0.0,2.0,68,0.00,CLR,SKC,0.00,WeatherDisplay:10.37,2013-02-12 18:13:00,
2013-02-12 12:18:00,38.7,29.0,30.14,SSE,165,0.0,5.0,68,0.00,CLR,SKC,0.00,WeatherDisplay:10.37,2013-02-12 18:18:00,
2013-02-12 12:28:00,39.0,29.0,30.14,South,188,0.0,5.0,67,0.00,CLR,SKC,0.00,WeatherDisplay:10.37,2013-02-12 18:28:00,
2013-02-12 12:38:00,39.0,28.6,30.14,SW,217,0.0,3.0,66,0.00,CLR,SKC,0.00,WeatherDisplay:10.37,2013-02-12 18:38:00,
2013-02-12 12:43:00,39.4,28.6,30.14,South,185,1.0,3.0,65,0.00,CLR,SKC,0.00,WeatherDisplay:10.37,2013-02-12 18:43:00,
2013-02-12 12:48:00,39.4,28.3,30.14,SSE,167,2.0,5.0,64,0.00,CLR,SKC,0.00,WeatherDisplay:10.37,2013-02-12 18:48:00,
2013-02-12 12:53:00,39.7,27.7,30.14,South,178,2.0,5.0,62,0.00,CLR,SKC,0.00,WeatherDisplay:10.37,2013-02-12 18:53:00,
2013-02-12 12:58:00,39.9,27.9,30.13,South,191,1.0,5.0,62,0.00,CLR,SKC,0.00,WeatherDisplay:10.37,2013-02-12 18:58:00,
2013-02-12 13:03:00,40.2,27.8,30.13,SSW,193,2.0,5.0,61,0.00,CLR,SKC,0.00,WeatherDisplay:10.37,2013-02-12 19:03:00,
2013-02-12 13:08:00,40.3,27.9,30.13,SSW,209,0.0,0.0,61,0.00,CLR,SKC,0.00,WeatherDisplay:10.37,2013-02-12 19:08:00,
2013-02-12 13:13:00,40.5,27.3,30.13,South,174,2.0,3.0,59,0.00,CLR,SKC,0.00,WeatherDisplay:10.37,2013-02-12 19:13:00,
2013-02-12 13:18:00,40.6,27.4,30.13,SSE,148,1.0,2.0,59,0.00,CLR,SKC,0.00,WeatherDisplay:10.37,2013-02-12 19:18:00,
2013-02-12 13:28:00,41.3,27.6,30.12,SSE,163,0.0,0.0,58,0.00,CLR,SKC,0.00,WeatherDisplay:10.37,2013-02-12 19:28:00,
2013-02-12 13:33:00,41.6,27.9,30.12,SE,144,0.0,3.0,58,0.00,CLR,SKC,0.00,WeatherDisplay:10.37,2013-02-12 19:33:00,
2013-02-12 13:38:00,41.6,27.5,30.11,SE,141,1.0,3.0,57,0.00,CLR,SKC,0.00,WeatherDisplay:10.37,2013-02-12 19:38:00,
2013-02-12 13:43:00,41.7,27.1,30.11,SE,146,0.0,0.0,56,0.00,CLR,SKC,0.00,WeatherDisplay:10.37,2013-02-12 19:43:00,
2013-02-12 13:48:00,41.5,27.0,30.11,SSE,155,0.0,0.0,56,0.00,CLR,SKC,0.00,WeatherDisplay:10.37,2013-02-12 19:48:00,
2013-02-12 13:53:00,41.7,27.2,30.11,South,178,0.0,3.0,56,0.00,CLR,SKC,0.00,WeatherDisplay:10.37,2013-02-12 19:53:00,
2013-02-12 13:58:00,41.7,27.2,30.11,SSW,207,0.0,2.0,56,0.00,CLR,SKC,0.00,WeatherDisplay:10.37,2013-02-12 19:58:00,
2013-02-12 14:03:00,41.8,27.3,30.10,SE,129,5.0,5.0,56,0.00,CLR,SKC,0.00,WeatherDisplay:10.37,2013-02-12 20:03:00,
2013-02-12 14:08:00,41.9,26.9,30.10,SE,144,1.0,5.0,55,0.00,CLR,SKC,0.00,WeatherDisplay:10.37,2013-02-12 20:08:00,
2013-02-12 14:13:00,41.9,26.5,30.10,South,172,2.0,5.0,54,0.00,CLR,SKC,0.00,WeatherDisplay:10.37,2013-02-12 20:13:00,
2013-02-12 14:18:00,41.8,26.4,30.09,SSW,202,1.0,3.0,54,0.00,CLR,SKC,0.00,WeatherDisplay:10.37,2013-02-12 20:18:00,
2013-02-12 14:28:00,41.8,25.5,30.09,SE,146,3.0,5.0,52,0.00,CLR,SKC,0.00,WeatherDisplay:10.37,2013-02-12 20:28:00,
2013-02-12 14:33:00,41.8,25.9,30.08,South,185,1.0,3.0,53,0.00,CLR,SKC,0.00,WeatherDisplay:10.37,2013-02-12 20:33:00,
2013-02-12 14:38:00,41.7,25.4,30.08,South,172,2.0,7.0,52,0.00,CLR,SKC,0.00,WeatherDisplay:10.37,2013-02-12 20:38:00,
2013-02-12 14:43:00,41.8,25.0,30.08,SE,128,0.0,5.0,51,0.00,CLR,SKC,0.00,WeatherDisplay:10.37,2013-02-12 20:43:00,
2013-02-12 14:48:00,42.0,25.2,30.08,ESE,116,0.0,2.0,51,0.00,CLR,SKC,0.00,WeatherDisplay:10.37,2013-02-12 20:48:00,
2013-02-12 14:53:00,42.1,24.8,30.07,SSE,148,1.0,3.0,50,0.00,CLR,SKC,0.00,WeatherDisplay:10.37,2013-02-12 20:53:00,
2013-02-12 14:58:00,42.1,24.8,30.07,SSW,198,0.0,0.0,50,0.00,CLR,SKC,0.00,WeatherDisplay:10.37,2013-02-12 20:58:00,
2013-02-12 15:03:00,42.2,24.9,30.07,South,190,1.0,2.0,50,0.00,CLR,SKC,0.00,WeatherDisplay:10.37,2013-02-12 21:03:00,
2013-02-12 15:08:00,42.2,24.9,30.06,SSE,161,0.0,0.0,50,0.00,CLR,SKC,0.00,WeatherDisplay:10.37,2013-02-12 21:08:00,
2013-02-12 15:18:00,41.9,25.1,30.06,ESE,115,0.0,2.0,51,0.00,CLR,SKC,0.00,WeatherDisplay:10.37,2013-02-12 21:18:00,
2013-02-12 15:28:00,42.1,24.3,30.06,SE,136,0.0,2.0,49,0.00,CLR,SKC,0.00,WeatherDisplay:10.37,2013-02-12 21:28:00,
2013-02-12 15:33:00,42.1,24.8,30.06,South,174,0.0,3.0,50,0.00,CLR,SKC,0.00,WeatherDisplay:10.37,2013-02-12 21:33:00,
2013-02-12 15:38:00,42.1,24.8,30.05,SSW,199,0.0,0.0,50,0.00,CLR,SKC,0.00,WeatherDisplay:10.37,2013-02-12 21:38:00,
2013-02-12 15:43:00,42.2,25.4,30.05,SSW,198,0.0,2.0,51,0.00,CLR,SKC,0.00,WeatherDisplay:10.37,2013-02-12 21:43:00,
2013-02-12 15:48:00,42.3,25.9,30.05,South,173,0.0,2.0,52,0.00,CLR,SKC,0.00,WeatherDisplay:10.37,2013-02-12 21:48:00,
2013-02-12 15:53:00,42.3,25.5,30.05,SE,139,0.0,2.0,51,0.00,CLR,SKC,0.00,WeatherDisplay:10.37,2013-02-12 21:53:00,
2013-02-12 15:58:00,42.2,25.8,30.05,SE,140,0.0,3.0,52,0.00,CLR,SKC,0.00,WeatherDisplay:10.37,2013-02-12 21:58:00,
2013-02-12 16:03:00,42.2,25.8,30.05,SSE,157,2.0,3.0,52,0.00,CLR,SKC,0.00,WeatherDisplay:10.37,2013-02-12 22:03:00,
2013-02-12 16:08:00,42.0,25.2,30.05,South,186,0.0,1.0,51,0.00,CLR,SKC,0.00,WeatherDisplay:10.37,2013-02-12 22:08:00,
2013-02-12 16:13:00,42.0,25.7,30.05,SSW,196,0.0,2.0,52,0.00,CLR,SKC,0.00,WeatherDisplay:10.37,2013-02-12 22:13:00,
2013-02-12 16:18:00,41.9,25.1,30.05,SSE,154,1.0,3.0,51,0.00,CLR,SKC,0.00,WeatherDisplay:10.37,2013-02-12 22:18:00,
2013-02-12 16:23:00,41.8,25.0,30.05,SE,126,0.0,3.0,51,0.00,CLR,SKC,0.00,WeatherDisplay:10.37,2013-02-12 22:23:00,
2013-02-12 16:28:00,41.8,25.5,30.05,ESE,111,0.0,2.0,52,0.00,CLR,SKC,0.00,WeatherDisplay:10.37,2013-02-12 22:28:00,
2013-02-12 16:33:00,41.8,25.5,30.05,ESE,112,0.0,2.0,52,0.00,CLR,SKC,0.00,WeatherDisplay:10.37,2013-02-12 22:33:00,
2013-02-12 16:38:00,41.8,25.4,30.05,ESE,119,0.0,2.0,52,0.00,CLR,SKC,0.00,WeatherDisplay:10.37,2013-02-12 22:38:00,
2013-02-12 16:43:00,41.6,25.3,30.04,SSE,151,0.0,2.0,52,0.00,CLR,SKC,0.00,WeatherDisplay:10.37,2013-02-12 22:43:00,
2013-02-12 16:48:00,41.5,25.2,30.04,SE,145,0.0,3.0,52,0.00,CLR,SKC,0.00,WeatherDisplay:10.37,2013-02-12 22:48:00,
2013-02-12 16:53:00,41.4,25.6,30.04,SE,138,0.0,0.0,53,0.00,CLR,SKC,0.00,WeatherDisplay:10.37,2013-02-12 22:53:00,
2013-02-12 16:58:00,41.4,25.6,30.04,SE,138,0.0,0.0,53,0.00,CLR,SKC,0.00,WeatherDisplay:10.37,2013-02-12 22:58:00,
2013-02-12 17:03:00,41.3,25.5,30.04,SE,138,0.0,0.0,53,0.00,CLR,SKC,0.00,WeatherDisplay:10.37,2013-02-12 23:03:00,
2013-02-12 17:08:00,41.3,25.9,30.03,SE,137,0.0,2.0,54,0.00,CLR,SKC,0.00,WeatherDisplay:10.37,2013-02-12 23:08:00,
2013-02-12 17:18:00,41.1,25.7,30.03,SE,135,1.0,2.0,54,0.00,CLR,SKC,0.00,WeatherDisplay:10.37,2013-02-12 23:18:00,
2013-02-12 17:23:00,41.1,26.1,30.03,SE,134,0.0,2.0,55,0.00,CLR,SKC,0.00,WeatherDisplay:10.37,2013-02-12 23:23:00,
2013-02-12 17:28:00,41.0,26.5,30.03,SE,126,1.0,5.0,56,0.00,CLR,SKC,0.00,WeatherDisplay:10.37,2013-02-12 23:28:00,
2013-02-12 17:38:00,40.8,26.7,30.03,SSE,151,0.0,2.0,57,0.00,CLR,SKC,0.00,WeatherDisplay:10.37,2013-02-12 23:38:00,
2013-02-12 17:48:00,40.5,26.0,30.03,South,190,0.0,3.0,56,0.00,CLR,SKC,0.00,WeatherDisplay:10.37,2013-02-12 23:48:00,
2013-02-12 17:58:00,40.3,25.9,30.03,SSW,202,0.0,1.0,56,0.00,CLR,SKC,0.00,WeatherDisplay:10.37,2013-02-12 23:58:00,
2013-02-12 18:03:00,40.3,26.2,30.03,SSW,213,0.0,2.0,57,0.00,CLR,SKC,0.00,WeatherDisplay:10.37,2013-02-13 00:03:00,
2013-02-12 18:08:00,40.2,26.6,30.03,WSW,237,0.0,0.0,58,0.00,CLR,SKC,0.00,WeatherDisplay:10.37,2013-02-13 00:08:00,
2013-02-12 18:13:00,40.1,26.5,30.03,WSW,237,0.0,2.0,58,0.00,CLR,SKC,0.00,WeatherDisplay:10.37,2013-02-13 00:13:00,
2013-02-12 18:18:00,40.0,26.8,30.03,SW,233,0.0,0.0,59,0.00,CLR,SKC,0.00,WeatherDisplay:10.37,2013-02-13 00:18:00,
2013-02-12 18:23:00,39.9,26.7,30.03,WSW,240,0.0,2.0,59,0.00,CLR,SKC,0.00,WeatherDisplay:10.37,2013-02-13 00:23:00,
2013-02-12 18:28:00,39.9,26.7,30.03,West,267,0.0,2.0,59,0.00,CLR,SKC,0.00,WeatherDisplay:10.37,2013-02-13 00:28:00,
2013-02-12 18:33:00,39.9,26.3,30.04,WNW,286,0.0,2.0,58,0.00,CLR,SKC,0.00,WeatherDisplay:10.37,2013-02-13 00:33:00,
2013-02-12 18:38:00,39.9,26.3,30.04,WNW,287,0.0,0.0,58,0.00,CLR,SKC,0.00,WeatherDisplay:10.37,2013-02-13 00:38:00,
2013-02-12 18:43:00,39.9,26.7,30.04,WNW,286,0.0,2.0,59,0.00,CLR,SKC,0.00,WeatherDisplay:10.37,2013-02-13 00:43:00,
2013-02-12 18:48:00,39.8,26.7,30.04,West,281,0.0,2.0,59,0.00,CLR,SKC,0.00,WeatherDisplay:10.37,2013-02-13 00:48:00,
2013-02-12 18:53:00,39.8,26.6,30.04,West,280,0.0,0.0,59,0.00,CLR,SKC,0.00,WeatherDisplay:10.37,2013-02-13 00:53:00,
2013-02-12 18:58:00,39.8,26.6,30.04,West,281,1.0,2.0,59,0.00,CLR,SKC,0.00,WeatherDisplay:10.37,2013-02-13 00:58:00,
2013-02-12 19:03:00,39.7,26.6,30.04,West,280,0.0,2.0,59,0.00,CLR,SKC,0.00,WeatherDisplay:10.37,2013-02-13 01:03:00,
2013-02-12 19:08:00,39.7,26.1,30.04,West,276,0.0,2.0,58,0.00,CLR,SKC,0.00,WeatherDisplay:10.37,2013-02-13 01:08:00,
2013-02-12 19:13:00,39.6,26.0,30.04,West,266,0.0,0.0,58,0.00,CLR,SKC,0.00,WeatherDisplay:10.37,2013-02-13 01:13:00,
2013-02-12 19:18:00,39.6,26.0,30.04,West,265,0.0,0.0,58,0.00,CLR,SKC,0.00,WeatherDisplay:10.37,2013-02-13 01:18:00,
2013-02-12 19:23:00,39.5,25.9,30.04,West,266,0.0,2.0,58,0.00,CLR,SKC,0.00,WeatherDisplay:10.37,2013-02-13 01:23:00,
2013-02-12 19:28:00,39.5,25.9,30.04,West,266,0.0,2.0,58,0.00,CLR,SKC,0.00,WeatherDisplay:10.37,2013-02-13 01:28:00,
2013-02-12 19:33:00,39.4,25.9,30.04,West,266,0.0,0.0,58,0.00,CLR,SKC,0.00,WeatherDisplay:10.37,2013-02-13 01:33:00,
2013-02-12 19:38:00,39.3,25.8,30.04,West,266,0.0,2.0,58,0.00,CLR,SKC,0.00,WeatherDisplay:10.37,2013-02-13 01:38:00,
2013-02-12 19:48:00,39.2,25.7,30.04,West,266,0.0,2.0,58,0.00,CLR,SKC,0.00,WeatherDisplay:10.37,2013-02-13 01:48:00,
2013-02-12 19:53:00,39.1,26.0,30.04,West,267,0.0,0.0,59,0.00,CLR,SKC,0.00,WeatherDisplay:10.37,2013-02-13 01:53:00,
2013-02-12 19:58:00,39.0,25.9,30.04,West,267,0.0,0.0,59,0.00,CLR,SKC,0.00,WeatherDisplay:10.37,2013-02-13 01:58:00,
2013-02-12 20:03:00,38.9,26.2,30.03,WSW,258,1.0,3.0,60,0.00,CLR,SKC,0.00,WeatherDisplay:10.37,2013-02-13 02:03:00,
2013-02-12 20:08:00,38.8,26.1,30.03,SW,226,0.0,2.0,60,0.00,CLR,SKC,0.00,WeatherDisplay:10.37,2013-02-13 02:08:00,
2013-02-12 20:13:00,38.6,26.3,30.03,SSW,207,0.0,0.0,61,0.00,CLR,SKC,0.00,WeatherDisplay:10.37,2013-02-13 02:13:00,
2013-02-12 20:18:00,38.4,26.1,30.03,SSW,209,0.0,2.0,61,0.00,CLR,SKC,0.00,WeatherDisplay:10.37,2013-02-13 02:18:00,
2013-02-12 20:23:00,38.3,26.0,30.03,West,272,0.0,0.0,61,0.00,CLR,SKC,0.00,WeatherDisplay:10.37,2013-02-13 02:23:00,
2013-02-12 20:28:00,38.2,26.3,30.04,WNW,302,0.0,0.0,62,0.00,CLR,SKC,0.00,WeatherDisplay:10.37,2013-02-13 02:28:00,
2013-02-12 20:33:00,38.0,26.2,30.03,WNW,302,0.0,0.0,62,0.00,CLR,SKC,0.00,WeatherDisplay:10.37,2013-02-13 02:33:00,
2013-02-12 20:38:00,37.9,26.1,30.03,WNW,302,0.0,0.0,62,0.00,CLR,SKC,0.00,WeatherDisplay:10.37,2013-02-13 02:38:00,
2013-02-12 20:43:00,37.7,26.3,30.03,WNW,302,0.0,0.0,63,0.00,CLR,SKC,0.00,WeatherDisplay:10.37,2013-02-13 02:43:00,
2013-02-12 20:48:00,37.5,26.4,30.03,WNW,302,0.0,0.0,64,0.00,CLR,SKC,0.00,WeatherDisplay:10.37,2013-02-13 02:48:00,
2013-02-12 20:53:00,37.3,26.3,30.04,WNW,302,0.0,0.0,64,0.00,CLR,SKC,0.00,WeatherDisplay:10.37,2013-02-13 02:53:00,
2013-02-12 20:58:00,37.1,26.1,30.04,WNW,302,0.0,0.0,64,0.00,CLR,SKC,0.00,WeatherDisplay:10.37,2013-02-13 02:58:00,
2013-02-12 21:03:00,36.9,26.2,30.04,WNW,302,0.0,0.0,65,0.00,CLR,SKC,0.00,WeatherDisplay:10.37,2013-02-13 03:03:00,
2013-02-12 21:08:00,36.8,26.5,30.04,WNW,302,0.0,2.0,66,0.00,CLR,SKC,0.00,WeatherDisplay:10.37,2013-02-13 03:08:00,
2013-02-12 21:13:00,36.6,26.4,30.04,West,281,0.0,2.0,66,0.00,CLR,SKC,0.00,WeatherDisplay:10.37,2013-02-13 03:13:00,
2013-02-12 21:18:00,36.5,26.6,30.04,SW,236,0.0,2.0,67,0.00,CLR,SKC,0.00,WeatherDisplay:10.37,2013-02-13 03:18:00,
2013-02-12 21:23:00,36.4,26.5,30.04,SW,224,0.0,2.0,67,0.00,CLR,SKC,0.00,WeatherDisplay:10.37,2013-02-13 03:23:00,
2013-02-12 21:28:00,36.5,26.6,30.04,SW,227,0.0,2.0,67,0.00,CLR,SKC,0.00,WeatherDisplay:10.37,2013-02-13 03:28:00,
2013-02-12 21:38:00,36.3,26.4,30.03,WSW,241,0.0,5.0,67,0.00,CLR,SKC,0.00,WeatherDisplay:10.37,2013-02-13 03:38:00,
2013-02-12 21:43:00,36.2,26.3,30.04,WSW,237,0.0,0.0,67,0.00,CLR,SKC,0.00,WeatherDisplay:10.37,2013-02-13 03:43:00,
2013-02-12 21:48:00,36.0,26.4,30.04,SW,236,0.0,0.0,68,0.00,CLR,SKC,0.00,WeatherDisplay:10.37,2013-02-13 03:48:00,
2013-02-12 21:53:00,35.6,26.1,30.03,SW,236,0.0,0.0,68,0.00,CLR,SKC,0.00,WeatherDisplay:10.37,2013-02-13 03:53:00,
2013-02-12 22:03:00,35.2,26.1,30.03,SSW,195,0.0,0.0,69,0.00,CLR,SKC,0.00,WeatherDisplay:10.37,2013-02-13 04:03:00,
2013-02-12 22:13:00,34.7,25.9,30.03,South,186,0.0,3.0,70,0.00,CLR,SKC,0.00,WeatherDisplay:10.37,2013-02-13 04:13:00,
2013-02-12 22:18:00,34.9,26.5,30.03,SW,218,1.0,5.0,71,0.00,CLR,SKC,0.00,WeatherDisplay:10.37,2013-02-13 04:18:00,
2013-02-12 22:23:00,35.1,26.3,30.03,WSW,256,0.0,2.0,70,0.00,CLR,SKC,0.00,WeatherDisplay:10.37,2013-02-13 04:23:00,
2013-02-12 22:28:00,35.2,26.4,30.03,WSW,255,0.0,3.0,70,0.00,CLR,SKC,0.00,WeatherDisplay:10.37,2013-02-13 04:28:00,
2013-02-12 22:33:00,35.2,26.1,30.03,WSW,243,0.0,2.0,69,0.00,CLR,SKC,0.00,WeatherDisplay:10.37,2013-02-13 04:33:00,
2013-02-12 22:38:00,35.4,26.2,30.03,WSW,255,0.0,6.0,69,0.00,CLR,SKC,0.00,WeatherDisplay:10.37,2013-02-13 04:38:00,
2013-02-12 22:43:00,35.4,25.9,30.02,WSW,237,0.0,2.0,68,0.00,CLR,SKC,0.00,WeatherDisplay:10.37,2013-02-13 04:43:00,
2013-02-12 22:48:00,35.4,25.9,30.02,WSW,250,0.0,7.0,68,0.00,CLR,SKC,0.00,WeatherDisplay:10.37,2013-02-13 04:48:00,
2013-02-12 22:53:00,35.4,25.9,30.02,WSW,251,1.0,3.0,68,0.00,CLR,SKC,0.00,WeatherDisplay:10.37,2013-02-13 04:53:00,
2013-02-12 22:58:00,35.4,25.9,30.02,WSW,238,1.0,3.0,68,0.00,CLR,SKC,0.00,WeatherDisplay:10.37,2013-02-13 04:58:00,
2013-02-12 23:03:00,35.4,25.9,30.02,WSW,243,1.0,3.0,68,0.00,CLR,SKC,0.00,WeatherDisplay:10.37,2013-02-13 05:03:00,
2013-02-12 23:08:00,35.4,25.9,30.01,WSW,239,0.0,5.0,68,0.00,CLR,SKC,0.00,WeatherDisplay:10.37,2013-02-13 05:08:00,
2013-02-12 23:13:00,35.2,26.1,30.01,SW,230,0.0,5.0,69,0.00,CLR,SKC,0.00,WeatherDisplay:10.37,2013-02-13 05:13:00,
2013-02-12 23:18:00,35.2,25.7,30.01,WSW,253,1.0,5.0,68,0.00,CLR,SKC,0.00,WeatherDisplay:10.37,2013-02-13 05:18:00,
2013-02-12 23:23:00,35.3,25.8,30.01,West,264,1.0,3.0,68,0.00,CLR,SKC,0.00,WeatherDisplay:10.37,2013-02-13 05:23:00,
2013-02-12 23:28:00,35.4,25.8,30.01,WSW,256,1.0,5.0,68,0.00,CLR,SKC,0.00,WeatherDisplay:10.37,2013-02-13 05:28:00,
2013-02-12 23:33:00,35.4,25.9,30.01,WSW,244,2.0,5.0,68,0.00,CLR,SKC,0.00,WeatherDisplay:10.37,2013-02-13 05:33:00,
2013-02-12 23:38:00,35.4,25.9,30.01,WSW,250,1.0,5.0,68,0.00,CLR,SKC,0.00,WeatherDisplay:10.37,2013-02-13 05:38:00,
2013-02-12 23:48:00,35.0,25.9,30.01,WSW,249,0.0,2.0,69,0.00,CLR,SKC,0.00,WeatherDisplay:10.37,2013-02-13 05:48:00,
2013-02-12 23:53:00,34.8,26.0,30.01,West,269,0.0,2.0,70,0.00,CLR,SKC,0.00,WeatherDisplay:10.37,2013-02-13 05:53:00,
2013-02-12 23:58:00,34.6,25.8,30.01,WSW,254,0.0,8.0,70,0.00,CLR,SKC,0.00,WeatherDisplay:10.37,2013-02-13 05:58:00,